createdAt,value
2017-01-04T00:00:17.782Z,0
2017-01-04T00:01:26.510Z,0
2017-01-04T00:02:35.196Z,0
2017-01-04T00:03:43.883Z,0
2017-01-04T00:04:52.577Z,0
2017-01-04T00:06:01.260Z,0
2017-01-04T00:07:09.944Z,0
2017-01-04T00:08:18.668Z,0
2017-01-04T00:09:27.355Z,0
2017-01-04T00:10:36.038Z,0
2017-01-04T00:11:44.730Z,0
2017-01-04T00:12:53.413Z,0
2017-01-04T00:14:02.098Z,0
2017-01-04T00:15:10.780Z,0
2017-01-04T00:16:19.465Z,0
2017-01-04T00:17:28.144Z,0
2017-01-04T00:18:36.833Z,0
2017-01-04T00:19:45.513Z,0
2017-01-04T00:20:54.202Z,0
2017-01-04T00:22:02.892Z,0
2017-01-04T00:23:11.607Z,0
2017-01-04T00:24:20.285Z,0
2017-01-04T00:25:28.968Z,0
2017-01-04T00:26:37.656Z,0
2017-01-04T00:27:46.344Z,0
2017-01-04T00:28:55.029Z,0
2017-01-04T00:30:03.710Z,0
2017-01-04T00:31:12.396Z,0
2017-01-04T00:32:21.084Z,0
2017-01-04T00:33:29.772Z,0
2017-01-04T00:34:38.460Z,0
2017-01-04T00:35:47.148Z,0
2017-01-04T00:36:55.830Z,0
2017-01-04T00:38:04.518Z,0
2017-01-04T00:39:13.204Z,0
2017-01-04T00:40:21.888Z,0
2017-01-04T00:41:30.604Z,0
2017-01-04T00:42:39.286Z,0
2017-01-04T00:43:47.968Z,0
2017-01-04T00:44:56.657Z,0
2017-01-04T00:46:05.347Z,0
2017-01-04T00:47:14.027Z,0
2017-01-04T00:48:22.712Z,0
2017-01-04T00:49:31.411Z,0
2017-01-04T00:50:40.098Z,0
2017-01-04T00:51:48.818Z,0
2017-01-04T00:52:57.502Z,0
2017-01-04T00:54:06.191Z,0
2017-01-04T00:55:14.875Z,0
2017-01-04T00:56:23.565Z,0
2017-01-04T00:57:32.252Z,0
2017-01-04T00:58:40.941Z,0
2017-01-04T00:59:49.621Z,0
2017-01-04T01:00:58.307Z,0
2017-01-04T01:02:06.995Z,0
2017-01-04T01:03:15.673Z,0
2017-01-04T01:04:24.363Z,0
2017-01-04T01:05:33.043Z,0
2017-01-04T01:06:41.723Z,0
2017-01-04T01:07:50.406Z,0
2017-01-04T01:08:59.102Z,0
2017-01-04T01:10:07.785Z,0
2017-01-04T01:11:16.465Z,0
2017-01-04T01:12:25.161Z,0
2017-01-04T01:13:33.891Z,0
2017-01-04T01:14:42.579Z,0
2017-01-04T01:15:51.274Z,0
2017-01-04T01:16:59.954Z,0
2017-01-04T01:18:08.640Z,0
2017-01-04T01:19:17.329Z,0
2017-01-04T01:20:26.015Z,0
2017-01-04T01:21:34.698Z,0
2017-01-04T01:22:43.384Z,0
2017-01-04T01:23:52.073Z,0
2017-01-04T01:25:00.765Z,0
2017-01-04T01:26:09.461Z,0
2017-01-04T01:27:18.149Z,0
2017-01-04T01:28:26.892Z,0
2017-01-04T01:29:35.578Z,0
2017-01-04T01:30:44.259Z,0
2017-01-04T01:31:52.946Z,0
2017-01-04T01:33:01.635Z,0
2017-01-04T01:34:10.353Z,0
2017-01-04T01:35:19.037Z,0
2017-01-04T01:36:27.723Z,0
2017-01-04T01:37:36.419Z,0
2017-01-04T01:38:45.105Z,0
2017-01-04T01:39:53.791Z,0
2017-01-04T01:41:02.479Z,0
2017-01-04T01:42:11.160Z,0
2017-01-04T01:43:19.849Z,0
2017-01-04T01:44:28.530Z,0
2017-01-04T01:45:37.216Z,0
2017-01-04T01:46:45.942Z,0
2017-01-04T01:47:54.629Z,0
2017-01-04T01:49:03.310Z,0
2017-01-04T01:50:12.407Z,0
2017-01-04T01:51:21.091Z,0
2017-01-04T01:52:29.777Z,0
2017-01-04T01:53:38.497Z,0
2017-01-04T01:54:47.183Z,0
2017-01-04T01:55:55.868Z,0
2017-01-04T01:57:04.555Z,0
2017-01-04T01:58:13.244Z,0
2017-01-04T01:59:21.926Z,0
2017-01-04T02:00:30.636Z,0
2017-01-04T02:01:39.321Z,0
2017-01-04T02:02:48.010Z,0
2017-01-04T02:03:56.697Z,0
2017-01-04T02:05:05.394Z,0
2017-01-04T02:06:14.072Z,0
2017-01-04T02:07:22.762Z,0
2017-01-04T02:08:31.452Z,0
2017-01-04T02:09:40.137Z,0
2017-01-04T02:10:48.827Z,0
2017-01-04T02:11:57.529Z,0
2017-01-04T02:13:06.215Z,0
2017-01-04T02:14:14.906Z,0
2017-01-04T02:15:23.597Z,0
2017-01-04T02:16:32.285Z,0
2017-01-04T02:17:40.964Z,0
2017-01-04T02:18:49.648Z,0
2017-01-04T02:19:58.336Z,0
2017-01-04T02:21:07.029Z,0
2017-01-04T02:22:15.712Z,0
2017-01-04T02:23:24.397Z,0
2017-01-04T02:24:33.087Z,0
2017-01-04T02:25:41.771Z,0
2017-01-04T02:26:50.462Z,0
2017-01-04T02:27:59.148Z,0
2017-01-04T02:29:07.839Z,0
2017-01-04T02:30:16.523Z,0
2017-01-04T02:31:25.222Z,0
2017-01-04T02:32:33.904Z,0
2017-01-04T02:33:42.582Z,0
2017-01-04T02:34:51.268Z,0
2017-01-04T02:35:59.952Z,0
2017-01-04T02:37:08.633Z,0
2017-01-04T02:38:17.320Z,0
2017-01-04T02:39:26.008Z,0
2017-01-04T02:40:34.695Z,0
2017-01-04T02:41:43.382Z,0
2017-01-04T02:42:52.072Z,0
2017-01-04T02:44:00.751Z,0
2017-01-04T02:45:09.436Z,0
2017-01-04T02:46:18.163Z,0
2017-01-04T02:47:26.842Z,0
2017-01-04T02:48:35.532Z,0
2017-01-04T02:49:44.226Z,0
2017-01-04T02:50:52.912Z,0
2017-01-04T02:52:01.604Z,0
2017-01-04T02:53:10.287Z,0
2017-01-04T02:54:18.977Z,0
2017-01-04T02:55:27.673Z,0
2017-01-04T02:56:36.362Z,0
2017-01-04T02:57:45.050Z,0
2017-01-04T02:58:53.736Z,0
2017-01-04T03:00:02.419Z,0
2017-01-04T03:01:11.103Z,0
2017-01-04T03:02:19.795Z,0
2017-01-04T03:03:28.481Z,0
2017-01-04T03:04:37.166Z,0
2017-01-04T03:05:45.848Z,0
2017-01-04T03:06:54.534Z,0
2017-01-04T03:08:03.228Z,0
2017-01-04T03:09:11.917Z,0
2017-01-04T03:10:20.602Z,0
2017-01-04T03:11:29.292Z,0
2017-01-04T03:12:37.980Z,0
2017-01-04T03:13:46.669Z,0
2017-01-04T03:14:55.352Z,0
2017-01-04T03:16:04.034Z,0
2017-01-04T03:17:12.714Z,0
2017-01-04T03:18:21.397Z,0
2017-01-04T03:19:30.081Z,0
2017-01-04T03:20:38.768Z,0
2017-01-04T03:21:47.448Z,0
2017-01-04T03:22:56.135Z,0
2017-01-04T03:24:04.821Z,0
2017-01-04T03:25:13.517Z,0
2017-01-04T03:26:22.202Z,0
2017-01-04T03:27:30.885Z,0
2017-01-04T03:28:39.569Z,0
2017-01-04T03:29:48.295Z,0
2017-01-04T03:30:56.977Z,0
2017-01-04T03:32:05.690Z,0
2017-01-04T03:33:14.377Z,0
2017-01-04T03:34:23.065Z,0
2017-01-04T03:35:31.748Z,0
2017-01-04T03:36:40.437Z,0
2017-01-04T03:37:49.124Z,0
2017-01-04T03:38:57.817Z,0
2017-01-04T03:40:06.499Z,0
2017-01-04T03:41:15.183Z,0
2017-01-04T03:42:23.863Z,0
2017-01-04T03:43:32.551Z,0
2017-01-04T03:44:41.239Z,0
2017-01-04T03:45:49.922Z,0
2017-01-04T03:46:58.605Z,0
2017-01-04T03:48:07.293Z,0
2017-01-04T03:49:15.982Z,0
2017-01-04T03:50:24.667Z,0
2017-01-04T03:51:33.352Z,0
2017-01-04T03:52:42.044Z,0
2017-01-04T03:53:50.727Z,0
2017-01-04T03:54:59.413Z,0
2017-01-04T03:56:08.105Z,0
2017-01-04T03:57:16.785Z,0
2017-01-04T03:58:25.471Z,0
2017-01-04T03:59:34.157Z,0
2017-01-04T04:00:42.838Z,0
2017-01-04T04:01:51.527Z,0
2017-01-04T04:03:00.242Z,0
2017-01-04T04:04:08.933Z,0
2017-01-04T04:05:17.624Z,0
2017-01-04T04:06:26.307Z,0
2017-01-04T04:07:35.059Z,0
2017-01-04T04:08:43.770Z,0
2017-01-04T04:09:52.456Z,0
2017-01-04T04:11:01.144Z,0
2017-01-04T04:12:09.829Z,0
2017-01-04T04:13:18.623Z,0
2017-01-04T04:14:27.308Z,0
2017-01-04T04:15:35.994Z,0
2017-01-04T04:16:44.680Z,0
2017-01-04T04:17:53.368Z,0
2017-01-04T04:19:02.054Z,0
2017-01-04T04:20:10.736Z,0
2017-01-04T04:21:19.428Z,0
2017-01-04T04:22:28.111Z,0
2017-01-04T04:23:36.795Z,0
2017-01-04T04:24:45.474Z,0
2017-01-04T04:25:54.160Z,0
2017-01-04T04:27:02.843Z,0
2017-01-04T04:28:11.539Z,0
2017-01-04T04:29:20.223Z,0
2017-01-04T04:30:28.955Z,0
2017-01-04T04:31:37.639Z,0
2017-01-04T04:32:46.323Z,0
2017-01-04T04:33:55.005Z,0
2017-01-04T04:35:03.694Z,0
2017-01-04T04:36:12.412Z,0
2017-01-04T04:37:21.097Z,0
2017-01-04T04:38:29.785Z,0
2017-01-04T04:39:38.476Z,0
2017-01-04T04:40:47.187Z,0
2017-01-04T04:41:55.870Z,0
2017-01-04T04:43:04.560Z,0
2017-01-04T04:44:13.242Z,0
2017-01-04T04:45:21.927Z,0
2017-01-04T04:46:30.612Z,0
2017-01-04T04:47:39.303Z,0
2017-01-04T04:48:47.994Z,0
2017-01-04T04:49:56.674Z,0
2017-01-04T04:51:05.357Z,0
2017-01-04T04:52:14.050Z,0
2017-01-04T04:53:22.768Z,0
2017-01-04T04:54:31.451Z,0
2017-01-04T04:55:40.137Z,0
2017-01-04T04:56:48.822Z,0
2017-01-04T04:57:57.521Z,0
2017-01-04T04:59:06.208Z,0
2017-01-04T05:00:14.900Z,0
2017-01-04T05:01:23.584Z,0
2017-01-04T05:02:32.266Z,0
2017-01-04T05:03:40.969Z,0
2017-01-04T05:04:49.661Z,0
2017-01-04T05:05:58.353Z,0
2017-01-04T05:07:07.035Z,0
2017-01-04T05:08:15.720Z,0
2017-01-04T05:09:24.404Z,0
2017-01-04T05:10:35.396Z,0
2017-01-04T05:11:44.083Z,0
2017-01-04T05:12:52.775Z,0
2017-01-04T05:14:01.455Z,0
2017-01-04T05:15:10.141Z,0
2017-01-04T05:16:19.200Z,0
2017-01-04T05:17:27.883Z,0
2017-01-04T05:18:36.567Z,0
2017-01-04T05:19:45.252Z,0
2017-01-04T05:20:53.932Z,0
2017-01-04T05:22:02.667Z,0
2017-01-04T05:23:11.358Z,0
2017-01-04T05:24:20.049Z,0
2017-01-04T05:25:28.733Z,0
2017-01-04T05:26:37.420Z,0
2017-01-04T05:27:46.159Z,0
2017-01-04T05:28:54.845Z,0
2017-01-04T05:30:03.530Z,0
2017-01-04T05:31:12.216Z,0
2017-01-04T05:32:20.900Z,0
2017-01-04T05:33:29.682Z,0
2017-01-04T05:34:38.367Z,0
2017-01-04T05:35:47.052Z,0
2017-01-04T05:36:55.763Z,0
2017-01-04T05:38:04.450Z,0
2017-01-04T05:39:13.208Z,0
2017-01-04T05:40:21.899Z,0
2017-01-04T05:41:30.585Z,0
2017-01-04T05:42:39.268Z,0
2017-01-04T05:43:47.953Z,0
2017-01-04T05:44:56.691Z,0
2017-01-04T05:46:05.382Z,0
2017-01-04T05:47:14.063Z,0
2017-01-04T05:48:22.744Z,0
2017-01-04T05:49:31.436Z,0
2017-01-04T05:50:40.170Z,0
2017-01-04T05:51:48.858Z,0
2017-01-04T05:52:57.538Z,0
2017-01-04T05:54:06.226Z,0
2017-01-04T05:55:14.912Z,0
2017-01-04T05:56:23.652Z,0
2017-01-04T05:57:32.335Z,0
2017-01-04T05:58:41.025Z,0
2017-01-04T05:59:49.714Z,0
2017-01-04T06:00:58.398Z,0
2017-01-04T06:02:07.133Z,0
2017-01-04T06:03:16.221Z,0
2017-01-04T06:04:24.911Z,0
2017-01-04T06:05:33.594Z,0
2017-01-04T06:06:42.272Z,0
2017-01-04T06:07:51.002Z,0
2017-01-04T06:08:59.690Z,0
2017-01-04T06:10:08.381Z,0
2017-01-04T06:11:17.091Z,0
2017-01-04T06:12:25.777Z,0
2017-01-04T06:13:34.510Z,0
2017-01-04T06:14:43.193Z,0
2017-01-04T06:15:51.876Z,0
2017-01-04T06:17:00.559Z,0
2017-01-04T06:18:09.255Z,0
2017-01-04T06:19:18.411Z,0
2017-01-04T06:20:27.099Z,0
2017-01-04T06:21:35.787Z,0
2017-01-04T06:22:44.471Z,0
2017-01-04T06:23:53.158Z,0
2017-01-04T06:25:01.891Z,0
2017-01-04T06:26:10.582Z,0
2017-01-04T06:27:19.330Z,0
2017-01-04T06:28:28.016Z,0
2017-01-04T06:29:36.728Z,0
2017-01-04T06:30:45.454Z,0
2017-01-04T06:31:54.138Z,0
2017-01-04T06:33:02.862Z,0
2017-01-04T06:34:11.551Z,0
2017-01-04T06:35:20.237Z,0
2017-01-04T06:36:28.969Z,0
2017-01-04T06:37:37.681Z,0
2017-01-04T06:38:46.365Z,0
2017-01-04T06:39:55.047Z,0
2017-01-04T06:41:04.133Z,0
2017-01-04T06:42:12.969Z,0
2017-01-04T06:43:21.657Z,0
2017-01-04T06:44:30.351Z,0
2017-01-04T06:45:39.042Z,0
2017-01-04T06:46:47.794Z,0
2017-01-04T06:47:56.527Z,0
2017-01-04T06:49:05.209Z,0
2017-01-04T06:50:13.912Z,0
2017-01-04T06:51:22.595Z,0
2017-01-04T06:52:31.279Z,0
2017-01-04T06:53:40.016Z,0
2017-01-04T06:54:48.736Z,0
2017-01-04T06:55:57.416Z,0
2017-01-04T06:57:06.103Z,0
2017-01-04T06:58:14.821Z,0
2017-01-04T06:59:23.553Z,0
2017-01-04T07:00:32.240Z,0
2017-01-04T07:01:40.929Z,0
2017-01-04T07:02:49.618Z,0
2017-01-04T07:03:58.299Z,0
2017-01-04T07:05:07.031Z,0
2017-01-04T07:06:15.717Z,0
2017-01-04T07:07:24.405Z,0
2017-01-04T07:08:33.093Z,0
2017-01-04T07:09:41.773Z,0
2017-01-04T07:10:50.510Z,0
2017-01-04T07:11:59.218Z,0
2017-01-04T07:13:07.901Z,0
2017-01-04T07:14:16.580Z,0
2017-01-04T07:15:25.263Z,0
2017-01-04T07:16:33.998Z,0
2017-01-04T07:17:42.677Z,0
2017-01-04T07:18:51.363Z,0
2017-01-04T07:20:00.047Z,0
2017-01-04T07:21:08.739Z,0
2017-01-04T07:22:17.505Z,0
2017-01-04T07:23:26.184Z,0
2017-01-04T07:24:34.872Z,0
2017-01-04T07:25:43.565Z,0
2017-01-04T07:26:52.258Z,0
2017-01-04T07:28:00.995Z,0
2017-01-04T07:29:09.689Z,0
2017-01-04T07:30:18.378Z,0
2017-01-04T07:31:27.059Z,0
2017-01-04T07:32:35.748Z,4
2017-01-04T07:33:44.481Z,4
2017-01-04T07:34:53.160Z,4
2017-01-04T07:36:01.845Z,0
2017-01-04T07:37:10.529Z,4
2017-01-04T07:38:19.226Z,4
2017-01-04T07:39:27.954Z,4
2017-01-04T07:40:36.634Z,4
2017-01-04T07:41:45.325Z,4
2017-01-04T07:42:54.017Z,4
2017-01-04T07:44:02.700Z,8
2017-01-04T07:45:11.431Z,8
2017-01-04T07:46:20.130Z,12
2017-01-04T07:47:28.820Z,12
2017-01-04T07:48:37.501Z,12
2017-01-04T07:49:46.187Z,12
2017-01-04T07:50:54.925Z,16
2017-01-04T07:52:03.601Z,20
2017-01-04T07:53:12.287Z,16
2017-01-04T07:54:20.980Z,20
2017-01-04T07:55:29.664Z,24
2017-01-04T07:56:38.395Z,28
2017-01-04T07:57:47.083Z,28
2017-01-04T07:58:55.775Z,36
2017-01-04T08:00:04.464Z,36
2017-01-04T08:01:13.146Z,40
2017-01-04T08:02:21.880Z,44
2017-01-04T08:03:30.559Z,52
2017-01-04T08:04:39.240Z,60
2017-01-04T08:05:47.920Z,64
2017-01-04T08:06:56.611Z,68
2017-01-04T08:08:05.348Z,80
2017-01-04T08:09:14.066Z,84
2017-01-04T08:10:22.742Z,92
2017-01-04T08:11:31.433Z,100
2017-01-04T08:12:40.114Z,112
2017-01-04T08:13:49.266Z,124
2017-01-04T08:14:57.948Z,132
2017-01-04T08:16:06.636Z,148
2017-01-04T08:17:15.321Z,160
2017-01-04T08:18:24.000Z,168
2017-01-04T08:19:32.736Z,184
2017-01-04T08:20:41.418Z,196
2017-01-04T08:21:50.106Z,212
2017-01-04T08:22:58.788Z,220
2017-01-04T08:24:07.483Z,232
2017-01-04T08:25:16.211Z,248
2017-01-04T08:26:24.906Z,256
2017-01-04T08:27:33.591Z,268
2017-01-04T08:28:42.271Z,280
2017-01-04T08:29:50.952Z,296
2017-01-04T08:30:59.689Z,324
2017-01-04T08:32:08.378Z,340
2017-01-04T08:33:17.059Z,364
2017-01-04T08:34:25.737Z,388
2017-01-04T08:35:34.419Z,412
2017-01-04T08:36:43.408Z,436
2017-01-04T08:37:52.087Z,452
2017-01-04T08:39:00.777Z,464
2017-01-04T08:40:09.868Z,476
2017-01-04T08:41:18.560Z,496
2017-01-04T08:42:27.301Z,508
2017-01-04T08:43:35.980Z,524
2017-01-04T08:44:44.665Z,544
2017-01-04T08:45:53.348Z,560
2017-01-04T08:47:02.025Z,576
2017-01-04T08:48:11.055Z,600
2017-01-04T08:49:19.736Z,632
2017-01-04T08:50:28.416Z,640
2017-01-04T08:51:37.098Z,644
2017-01-04T08:52:45.783Z,652
2017-01-04T08:53:54.551Z,668
2017-01-04T08:55:03.234Z,672
2017-01-04T08:56:11.915Z,672
2017-01-04T08:57:20.601Z,680
2017-01-04T08:58:29.291Z,696
2017-01-04T08:59:38.030Z,720
2017-01-04T09:00:46.710Z,744
2017-01-04T09:01:55.395Z,748
2017-01-04T09:03:04.084Z,760
2017-01-04T09:04:12.772Z,760
2017-01-04T09:05:21.462Z,744
2017-01-04T09:06:30.153Z,744
2017-01-04T09:07:38.832Z,740
2017-01-04T09:08:47.517Z,760
2017-01-04T09:09:56.198Z,816
2017-01-04T09:11:04.887Z,856
2017-01-04T09:12:13.567Z,892
2017-01-04T09:13:22.258Z,908
2017-01-04T09:14:30.957Z,904
2017-01-04T09:15:39.640Z,892
2017-01-04T09:16:48.327Z,884
2017-01-04T09:17:57.016Z,868
2017-01-04T09:19:05.734Z,864
2017-01-04T09:20:14.445Z,856
2017-01-04T09:21:23.126Z,848
2017-01-04T09:22:32.114Z,864
2017-01-04T09:23:40.797Z,876
2017-01-04T09:24:49.483Z,888
2017-01-04T09:25:58.165Z,896
2017-01-04T09:27:06.858Z,908
2017-01-04T09:28:15.600Z,896
2017-01-04T09:29:24.287Z,884
2017-01-04T09:30:33.008Z,872
2017-01-04T09:31:41.698Z,848
2017-01-04T09:32:50.379Z,844
2017-01-04T09:33:59.064Z,848
2017-01-04T09:35:07.747Z,836
2017-01-04T09:36:16.434Z,824
2017-01-04T09:37:25.119Z,816
2017-01-04T09:38:33.801Z,824
2017-01-04T09:39:42.490Z,844
2017-01-04T09:40:51.176Z,856
2017-01-04T09:41:59.859Z,868
2017-01-04T09:43:08.547Z,876
2017-01-04T09:44:17.246Z,892
2017-01-04T09:45:25.929Z,916
2017-01-04T09:46:34.615Z,936
2017-01-04T09:47:43.298Z,976
2017-01-04T09:48:51.984Z,1024
2017-01-04T09:50:00.682Z,1072
2017-01-04T09:51:09.366Z,1120
2017-01-04T09:52:18.049Z,1160
2017-01-04T09:53:27.135Z,1184
2017-01-04T09:54:35.818Z,1184
2017-01-04T09:55:44.501Z,1204
2017-01-04T09:56:53.187Z,1272
2017-01-04T09:58:01.873Z,1316
2017-01-04T09:59:10.551Z,1336
2017-01-04T10:00:19.241Z,1332
2017-01-04T10:01:27.926Z,1312
2017-01-04T10:02:36.605Z,1320
2017-01-04T10:03:45.288Z,1348
2017-01-04T10:04:53.969Z,1380
2017-01-04T10:06:02.651Z,1392
2017-01-04T10:07:11.341Z,1420
2017-01-04T10:08:20.024Z,1488
2017-01-04T10:09:28.713Z,1576
2017-01-04T10:10:37.437Z,1640
2017-01-04T10:11:46.119Z,1696
2017-01-04T10:12:54.809Z,1716
2017-01-04T10:14:03.500Z,1780
2017-01-04T10:15:12.191Z,1836
2017-01-04T10:16:20.874Z,1892
2017-01-04T10:17:29.555Z,1912
2017-01-04T10:18:38.264Z,1924
2017-01-04T10:19:46.945Z,1996
2017-01-04T10:20:55.625Z,2044
2017-01-04T10:22:04.310Z,2108
2017-01-04T10:23:12.996Z,2204
2017-01-04T10:24:21.766Z,2280
2017-01-04T10:25:30.450Z,2328
2017-01-04T10:26:39.131Z,2392
2017-01-04T10:27:47.811Z,2452
2017-01-04T10:28:56.495Z,2492
2017-01-04T10:30:05.181Z,2556
2017-01-04T10:31:13.866Z,2600
2017-01-04T10:32:22.545Z,2672
2017-01-04T10:33:31.231Z,2748
2017-01-04T10:34:39.917Z,2728
2017-01-04T10:35:48.627Z,2664
2017-01-04T10:36:57.313Z,2608
2017-01-04T10:38:05.998Z,2532
2017-01-04T10:39:14.683Z,2448
2017-01-04T10:40:23.371Z,2328
2017-01-04T10:41:32.055Z,2192
2017-01-04T10:42:40.760Z,2000
2017-01-04T10:43:49.441Z,1804
2017-01-04T10:44:58.132Z,1628
2017-01-04T10:46:06.818Z,1516
2017-01-04T10:47:15.496Z,1412
2017-01-04T10:48:24.180Z,1324
2017-01-04T10:49:32.859Z,1256
2017-01-04T10:50:41.551Z,1196
2017-01-04T10:51:50.235Z,1148
2017-01-04T10:52:58.914Z,1120
2017-01-04T10:54:07.606Z,1096
2017-01-04T10:55:16.290Z,1056
2017-01-04T10:56:25.366Z,984
2017-01-04T10:57:34.050Z,916
2017-01-04T10:58:42.728Z,864
2017-01-04T10:59:51.412Z,844
2017-01-04T11:01:00.096Z,808
2017-01-04T11:02:08.782Z,764
2017-01-04T11:03:17.465Z,720
2017-01-04T11:04:26.177Z,672
2017-01-04T11:05:34.868Z,644
2017-01-04T11:06:43.556Z,612
2017-01-04T11:07:52.237Z,580
2017-01-04T11:09:00.917Z,568
2017-01-04T11:10:09.595Z,544
2017-01-04T11:11:18.275Z,568
2017-01-04T11:12:26.961Z,576
2017-01-04T11:13:35.642Z,608
2017-01-04T11:14:44.326Z,668
2017-01-04T11:15:53.008Z,700
2017-01-04T11:17:01.687Z,736
2017-01-04T11:18:10.384Z,796
2017-01-04T11:19:19.067Z,824
2017-01-04T11:20:27.751Z,848
2017-01-04T11:21:36.434Z,864
2017-01-04T11:22:45.120Z,836
2017-01-04T11:23:53.805Z,780
2017-01-04T11:25:02.486Z,736
2017-01-04T11:26:11.170Z,672
2017-01-04T11:27:19.851Z,632
2017-01-04T11:28:28.534Z,660
2017-01-04T11:29:37.220Z,672
2017-01-04T11:30:45.899Z,656
2017-01-04T11:31:54.585Z,644
2017-01-04T11:33:03.266Z,652
2017-01-04T11:34:11.947Z,604
2017-01-04T11:35:20.635Z,620
2017-01-04T11:36:29.319Z,604
2017-01-04T11:37:38.001Z,580
2017-01-04T11:38:46.689Z,572
2017-01-04T11:39:55.370Z,584
2017-01-04T11:41:04.051Z,628
2017-01-04T11:42:12.732Z,644
2017-01-04T11:43:21.410Z,644
2017-01-04T11:44:30.111Z,668
2017-01-04T11:45:38.821Z,708
2017-01-04T11:46:47.505Z,744
2017-01-04T11:47:56.193Z,740
2017-01-04T11:49:04.872Z,696
2017-01-04T11:50:13.558Z,644
2017-01-04T11:51:22.236Z,612
2017-01-04T11:52:30.926Z,576
2017-01-04T11:53:39.629Z,560
2017-01-04T11:54:48.318Z,548
2017-01-04T11:55:57.001Z,544
2017-01-04T11:57:05.686Z,556
2017-01-04T11:58:14.370Z,568
2017-01-04T11:59:23.054Z,576
2017-01-04T12:00:31.736Z,588
2017-01-04T12:01:40.417Z,612
2017-01-04T12:02:49.100Z,644
2017-01-04T12:03:57.794Z,680
2017-01-04T12:05:06.478Z,692
2017-01-04T12:06:15.161Z,696
2017-01-04T12:07:23.871Z,720
2017-01-04T12:08:32.554Z,780
2017-01-04T12:09:41.235Z,860
2017-01-04T12:10:49.914Z,904
2017-01-04T12:11:58.601Z,964
2017-01-04T12:13:07.288Z,1012
2017-01-04T12:14:15.967Z,1048
2017-01-04T12:15:24.655Z,1048
2017-01-04T12:16:33.344Z,1028
2017-01-04T12:17:42.027Z,996
2017-01-04T12:18:50.709Z,984
2017-01-04T12:19:59.386Z,960
2017-01-04T12:21:08.070Z,912
2017-01-04T12:22:16.756Z,884
2017-01-04T12:23:25.841Z,892
2017-01-04T12:24:34.921Z,920
2017-01-04T12:25:43.607Z,932
2017-01-04T12:26:52.295Z,928
2017-01-04T12:28:00.976Z,904
2017-01-04T12:29:10.129Z,900
2017-01-04T12:30:18.835Z,916
2017-01-04T12:31:27.518Z,924
2017-01-04T12:32:36.219Z,932
2017-01-04T12:33:44.903Z,920
2017-01-04T12:34:53.586Z,916
2017-01-04T12:36:02.274Z,908
2017-01-04T12:37:10.963Z,888
2017-01-04T12:38:19.640Z,884
2017-01-04T12:39:28.323Z,888
2017-01-04T12:40:37.011Z,904
2017-01-04T12:41:45.686Z,916
2017-01-04T12:42:54.394Z,932
2017-01-04T12:44:03.086Z,948
2017-01-04T12:45:11.820Z,972
2017-01-04T12:46:20.508Z,1020
2017-01-04T12:47:29.205Z,1044
2017-01-04T12:48:37.886Z,1080
2017-01-04T12:49:46.567Z,1136
2017-01-04T12:50:55.266Z,1220
2017-01-04T12:52:03.949Z,1268
2017-01-04T12:53:12.631Z,1272
2017-01-04T12:54:21.318Z,1264
2017-01-04T12:55:30.002Z,1280
2017-01-04T12:56:38.686Z,1264
2017-01-04T12:57:47.388Z,1240
2017-01-04T12:58:56.068Z,1164
2017-01-04T13:00:04.759Z,1100
2017-01-04T13:01:13.450Z,1028
2017-01-04T13:02:22.137Z,964
2017-01-04T13:03:30.822Z,932
2017-01-04T13:04:39.515Z,904
2017-01-04T13:05:48.199Z,872
2017-01-04T13:06:56.886Z,860
2017-01-04T13:08:05.571Z,848
2017-01-04T13:09:14.250Z,844
2017-01-04T13:10:22.934Z,828
2017-01-04T13:11:31.616Z,832
2017-01-04T13:12:40.322Z,824
2017-01-04T13:13:49.010Z,796
2017-01-04T13:14:57.698Z,772
2017-01-04T13:16:06.381Z,744
2017-01-04T13:17:15.059Z,724
2017-01-04T13:18:23.743Z,700
2017-01-04T13:19:32.427Z,676
2017-01-04T13:20:41.111Z,640
2017-01-04T13:21:49.798Z,616
2017-01-04T13:22:58.586Z,608
2017-01-04T13:24:07.262Z,584
2017-01-04T13:25:16.337Z,568
2017-01-04T13:26:25.028Z,548
2017-01-04T13:27:33.709Z,528
2017-01-04T13:28:42.392Z,504
2017-01-04T13:29:51.073Z,492
2017-01-04T13:30:59.749Z,476
2017-01-04T13:32:08.432Z,452
2017-01-04T13:33:17.115Z,436
2017-01-04T13:34:25.797Z,420
2017-01-04T13:35:34.478Z,404
2017-01-04T13:36:43.167Z,384
2017-01-04T13:37:51.849Z,364
2017-01-04T13:39:00.529Z,352
2017-01-04T13:40:09.212Z,332
2017-01-04T13:41:17.897Z,316
2017-01-04T13:42:26.582Z,300
2017-01-04T13:43:35.301Z,280
2017-01-04T13:44:43.980Z,272
2017-01-04T13:45:52.665Z,260
2017-01-04T13:47:01.345Z,248
2017-01-04T13:48:10.028Z,248
2017-01-04T13:49:18.707Z,240
2017-01-04T13:50:27.388Z,232
2017-01-04T13:51:36.081Z,228
2017-01-04T13:52:44.766Z,216
2017-01-04T13:53:53.448Z,208
2017-01-04T13:55:02.137Z,200
2017-01-04T13:56:10.821Z,192
2017-01-04T13:57:19.507Z,188
2017-01-04T13:58:28.185Z,184
2017-01-04T13:59:36.873Z,180
2017-01-04T14:00:45.562Z,176
2017-01-04T14:01:54.259Z,172
2017-01-04T14:03:02.943Z,168
2017-01-04T14:04:11.628Z,164
2017-01-04T14:05:20.335Z,164
2017-01-04T14:06:29.020Z,156
2017-01-04T14:07:37.707Z,148
2017-01-04T14:08:46.391Z,144
2017-01-04T14:09:55.072Z,140
2017-01-04T14:11:03.756Z,136
2017-01-04T14:12:12.448Z,132
2017-01-04T14:13:21.134Z,128
2017-01-04T14:14:29.818Z,120
2017-01-04T14:15:38.900Z,116
2017-01-04T14:16:47.588Z,116
2017-01-04T14:17:56.294Z,108
2017-01-04T14:19:04.974Z,108
2017-01-04T14:20:13.690Z,100
2017-01-04T14:21:22.371Z,96
2017-01-04T14:22:31.050Z,88
2017-01-04T14:23:39.733Z,80
2017-01-04T14:24:48.412Z,80
2017-01-04T14:25:57.096Z,72
2017-01-04T14:27:05.776Z,68
2017-01-04T14:28:14.460Z,64
2017-01-04T14:29:23.143Z,56
2017-01-04T14:30:31.829Z,52
2017-01-04T14:31:40.514Z,48
2017-01-04T14:32:49.202Z,48
2017-01-04T14:33:57.888Z,44
2017-01-04T14:35:06.586Z,40
2017-01-04T14:36:15.269Z,32
2017-01-04T14:37:23.952Z,28
2017-01-04T14:38:32.638Z,28
2017-01-04T14:39:41.319Z,24
2017-01-04T14:40:49.999Z,24
2017-01-04T14:41:58.681Z,20
2017-01-04T14:43:07.372Z,20
2017-01-04T14:44:16.058Z,16
2017-01-04T14:45:24.746Z,16
2017-01-04T14:46:33.430Z,16
2017-01-04T14:47:42.120Z,16
2017-01-04T14:48:50.799Z,12
2017-01-04T14:49:59.482Z,12
2017-01-04T14:51:08.170Z,12
2017-01-04T14:52:16.849Z,12
2017-01-04T14:53:25.539Z,8
2017-01-04T14:54:34.219Z,8
2017-01-04T14:55:42.957Z,4
2017-01-04T14:56:51.638Z,8
2017-01-04T14:58:00.316Z,4
2017-01-04T14:59:08.997Z,8
2017-01-04T15:00:17.678Z,8
2017-01-04T15:01:26.375Z,4
2017-01-04T15:02:35.061Z,4
2017-01-04T15:03:43.745Z,4
2017-01-04T15:04:52.428Z,4
2017-01-04T15:06:01.111Z,0
2017-01-04T15:07:09.793Z,4
2017-01-04T15:08:18.471Z,4
2017-01-04T15:09:27.154Z,0
2017-01-04T15:10:35.839Z,0
2017-01-04T15:11:44.524Z,4
2017-01-04T15:12:53.239Z,4
2017-01-04T15:14:01.920Z,0
2017-01-04T15:15:10.607Z,0
2017-01-04T15:16:19.285Z,0
2017-01-04T15:17:27.967Z,0
2017-01-04T15:18:36.645Z,0
2017-01-04T15:19:45.327Z,0
2017-01-04T15:20:54.012Z,0
2017-01-04T15:22:02.697Z,0
2017-01-04T15:23:11.407Z,0
2017-01-04T15:24:20.133Z,0
2017-01-04T15:25:28.817Z,0
2017-01-04T15:26:37.505Z,0
2017-01-04T15:27:46.189Z,0
2017-01-04T15:28:54.872Z,0
2017-01-04T15:30:03.554Z,0
2017-01-04T15:31:12.233Z,0
2017-01-04T15:32:20.918Z,0
2017-01-04T15:33:29.612Z,0
2017-01-04T15:34:38.301Z,0
2017-01-04T15:35:46.990Z,0
2017-01-04T15:36:55.673Z,0
2017-01-04T15:38:04.366Z,0
2017-01-04T15:39:13.044Z,0
2017-01-04T15:40:21.729Z,0
2017-01-04T15:41:30.412Z,0
2017-01-04T15:42:39.124Z,0
2017-01-04T15:43:47.835Z,0
2017-01-04T15:44:56.517Z,0
2017-01-04T15:46:05.197Z,0
2017-01-04T15:47:13.879Z,0
2017-01-04T15:48:22.591Z,0
2017-01-04T15:49:31.277Z,0
2017-01-04T15:50:39.954Z,0
2017-01-04T15:51:48.647Z,0
2017-01-04T15:52:57.332Z,0
2017-01-04T15:54:06.019Z,0
2017-01-04T15:55:14.701Z,0
2017-01-04T15:56:23.409Z,0
2017-01-04T15:57:32.096Z,0
2017-01-04T15:58:40.784Z,0
2017-01-04T15:59:49.470Z,0
2017-01-04T16:00:58.199Z,0
2017-01-04T16:02:06.877Z,0
2017-01-04T16:03:15.566Z,0
2017-01-04T16:04:24.268Z,0
2017-01-04T16:05:32.952Z,0
2017-01-04T16:06:41.636Z,0
2017-01-04T16:07:50.317Z,0
2017-01-04T16:08:59.041Z,0
2017-01-04T16:10:07.725Z,0
2017-01-04T16:11:16.424Z,0
2017-01-04T16:12:25.134Z,0
2017-01-04T16:13:33.821Z,0
2017-01-04T16:14:42.502Z,0
2017-01-04T16:15:51.183Z,0
2017-01-04T16:16:59.865Z,0
2017-01-04T16:18:08.546Z,0
2017-01-04T16:19:17.223Z,0
2017-01-04T16:20:25.942Z,0
2017-01-04T16:21:34.624Z,0
2017-01-04T16:22:43.305Z,0